< < Back
Terminal Aerodrome Forecast


Current Version              Previous Versions:   1  2  3  4  5  6  7  8  9  

Terminal Aerodrome Forecast

325
FTUS44 KOHX 181700
TAFCSV
TAF
KCSV 181720Z 1818/1918 03004KT P6SM SCT060 SCT250
     FM190100 00000KT P6SM SKC
     FM191000 00000KT 4SM BR SKC
     FM191400 12004KT P6SM SCT030=



Latest METAR

854
SAUS70 KWBC 182300 RRB
MTRCSV
METAR KCSV 182253Z AUTO 06003KT 10SM CLR 22/14 A3002 RMK AO2 SLP151
T02170144


USA.gov is the U.S. government's official web portal to all federal, state and local government web resources and services.